Latest Coastal Weather Observations for Gove Airport

IDD60701

Issued at 1:55 am CST Thursday 21 August 2014 (issued every 10 minutes, with the page automatically refreshed every 10 minutes)

About coastal observations | Map of coastal stations | Coastal observations for NT | Marine services | Other Formats
Station Details ID: 014508 Name: GOVE AIRPORT Lat: -12.27 Lon: 136.82 Height: 51.6 m
Data from the previous 72 hours. | See also: Recent months at Gove Airport
Date/Time
CST
Temp

°C
Wind Pressure Rain
since 9am
mm
Weather Cloud Vis
km
Sea
Height
m
Swell
Dir
 
Speed
knots
Gust
knots
hPa Trend Height
m
Period
s
Dir
21/01:30am 16.3 SE 4 5 1014.5 - 0.0 - - 10 - - - -
21/01:00am 17.6 NNE 5 5 1014.8 - 0.0 - - 10 - - - -
21/12:30am 16.9 E 6 7 1015.2 - 0.0 - - 10 - - - -
21/12:00am 17.4 NNE 6 7 1015.2 - 0.0 - - 10 - - - -
 
Date/Time
CST
Temp

°C
Wind Pressure Rain
since 9am
mm
Weather Cloud Vis
km
Sea
Height
m
Swell
Dir
 
Speed
knots
Gust
knots
hPa Trend Height
m
Period
s
Dir
20/11:30pm 17.8 NE 6 7 1015.6 - 0.0 - - 10 - - - -
20/11:00pm 18.1 NNE 6 8 1015.6 - 0.0 - - 10 - - - -
20/10:30pm 17.9 NNE 6 7 1015.8 - 0.0 - - 10 - - - -
20/10:00pm 17.9 SE 4 5 1015.8 - 0.0 - - 10 - - - -
20/09:30pm 18.1 SE 6 6 1015.9 - 0.0 - - 10 - - - -
20/09:00pm 18.7 ESE 6 7 1015.7 R 0.0 Smoke Clear 25 - - - -
20/08:30pm 18.8 ESE 5 7 1015.8 - 0.0 - - 10 - - - -
20/08:00pm 18.9 NE 5 6 1015.5 - 0.0 - - 10 - - - -
20/07:30pm 19.7 NE 5 6 1015.1 - 0.0 - - 10 - - - -
20/07:00pm 20.7 ENE 6 8 1014.6 - 0.0 - - 10 - - - -
20/06:30pm 21.5 NNE 8 12 1014.4 - 0.0 - Mostly clear 10 - - - -
20/06:00pm 22.4 E 9 13 1013.8 R 0.0 Smoke Mostly clear 25 - - - -
20/05:30pm 23.3 NNE 11 15 1013.9 - 0.0 - Mostly clear 10 - - - -
20/05:00pm 23.8 NE 13 16 1013.8 - 0.0 - Mostly clear 10 - - - -
20/04:30pm 24.8 ESE 12 17 1013.5 - 0.0 - - 10 - - - -
20/04:00pm 25.0 NE 13 18 1013.7 - 0.0 - - 10 - - - -
20/03:30pm 25.1 S 12 17 1013.6 - 0.0 - - 10 - - - -
20/03:00pm 26.3 ENE 11 16 1013.3 F 0.0 Smoke Mostly clear 25 - - - -
20/02:30pm 26.1 SSE 10 16 1013.9 - 0.0 - - 10 - - - -
20/02:00pm 26.2 ENE 12 15 1014.4 - 0.0 - - 10 - - - -
20/01:30pm 25.6 S 10 14 1014.8 - 0.0 - - 10 - - - -
20/01:00pm 25.9 E 11 16 1015.2 - 0.0 - - 10 - - - -
20/12:30pm 26.0 NE 13 15 1015.7 - 0.0 - - 10 - - - -
20/12:00pm 25.9 ESE 12 17 1015.7 F 0.0 Smoke Mostly clear 25 - - - -
20/11:30am 25.8 S 11 18 1016.3 - 0.0 - - 10 - - - -
20/11:00am 26.0 ESE 12 18 1016.6 - 0.0 - - 10 - - - -
20/10:30am 26.3 ESE 11 17 1016.7 - 0.0 - - 10 - - - -
20/10:00am 25.5 ESE 13 19 1016.7 - 0.0 - - 10 - - - -
20/09:30am 25.0 E 11 14 1016.9 - 0.0 - - 10 - - - -
20/09:00am 24.4 ESE 11 15 1016.6 F 0.0 Fine Partly cloudy 24 - - - -
20/08:30am 23.0 ENE 7 10 1016.7 - 0.0 - - 10 - - - -
20/08:00am 20.7 N 5 6 1016.6 - 0.0 - - 10 - - - -
20/07:30am 16.9 CALM 0 0 1016.2 - 0.0 - - 10 - - - -
20/07:00am 14.8 CALM 0 0 1016.2 - 0.0 - - 10 - - - -
20/06:30am 14.5 CALM 0 0 1016.0 - 0.0 - - 10 - - - -
20/06:00am 14.6 CALM 0 0 1015.4 R 0.0 Fine Partly cloudy 22 - - - -
20/05:30am 14.8 CALM 0 0 1015.1 - 0.0 - - 10 - - - -
20/05:00am 14.8 CALM 0 0 1014.9 - 0.0 - - 10 - - - -
20/04:30am 15.0 CALM 0 0 1014.5 - 0.0 - - 10 - - - -
20/04:00am 14.9 CALM 0 0 1014.6 - 0.0 - - 10 - - - -
20/03:30am 14.9 CALM 0 0 1014.7 - 0.0 - - 10 - - - -
20/03:00am 14.8 CALM 0 0 1014.6 - 0.0 - - 10 - - - -
20/02:30am 14.7 CALM 0 0 1015.1 - 0.0 - - 10 - - - -
20/02:00am 14.8 CALM 0 3 1015.3 - 0.0 - - 10 - - - -
20/01:30am 15.2 S 4 5 1015.3 - 0.0 - - 10 - - - -
20/01:00am 16.6 S 4 5 1015.4 - 0.0 - - 10 - - - -
20/12:30am 16.8 ENE 5 5 1015.6 - 0.0 - - 10 - - - -
20/12:00am 17.2 N 4 5 1015.8 - 0.0 - - 10 - - - -
 
Date/Time
CST
Temp

°C
Wind Pressure Rain
since 9am
mm
Weather Cloud Vis
km
Sea
Height
m
Swell
Dir
 
Speed
knots
Gust
knots
hPa Trend Height
m
Period
s
Dir
19/11:30pm 18.1 ESE 5 6 1016.0 - 0.0 - - 10 - - - -
19/11:00pm 18.4 NNE 5 6 1016.2 - 0.0 - - 10 - - - -
19/10:30pm 18.4 NNE 6 7 1016.4 - 0.0 - - 10 - - - -
19/10:00pm 18.0 NE 5 6 1016.3 - 0.0 - - 10 - - - -
19/09:30pm 18.8 SSE 5 7 1016.0 - 0.0 - - 10 - - - -
19/09:00pm 19.1 SSE 5 7 1015.7 S 0.0 Smoke Mostly clear 24 - - - -
19/08:30pm 19.2 NE 6 7 1015.6 - 0.0 - - 10 - - - -
19/08:00pm 19.3 N 5 6 1015.1 - 0.0 - - 10 - - - -
19/07:30pm 19.9 NE 6 7 1014.6 - 0.0 - - 10 - - - -
19/07:00pm 20.6 E 6 7 1014.5 - 0.0 - - 10 - - - -
19/06:30pm 21.6 E 8 12 1014.3 - 0.0 - - 10 - - - -
19/06:00pm 22.5 SE 10 13 1013.9 F 0.0 Fine Mostly clear 25 - - - -
19/05:30pm 23.3 E 13 17 1014.1 - 0.0 - - 10 - - - -
19/05:00pm 24.0 SSE 9 12 1014.1 - 0.0 - - 10 - - - -
19/04:30pm 24.5 E 13 16 1013.9 - 0.0 - - 10 - - - -
19/04:00pm 24.5 SSE 11 16 1014.0 - 0.0 - - 10 - - - -
19/03:30pm 25.1 ESE 14 18 1014.0 - 0.0 - - 10 - - - -
19/03:00pm 25.2 E 14 18 1014.0 F 0.0 Smoke Mostly clear 24 - - - -
19/02:30pm 25.2 ESE 14 17 1014.6 - 0.0 - - 10 - - - -
19/02:00pm 26.0 E 14 22 1015.0 - 0.0 - - 10 - - - -
19/01:30pm 26.0 ESE 14 18 1015.5 - 0.0 - - 10 - - - -
19/01:00pm 26.1 ESE 14 19 1015.8 - 0.0 - - 10 - - - -
19/12:30pm 25.4 SSE 12 17 1016.3 - 0.0 - - 10 - - - -
19/12:00pm 25.6 ESE 14 19 1016.4 F 0.0 Smoke Mostly clear 26 - - - -
19/11:30am 25.6 SSE 12 18 1017.2 - 0.0 - Mostly clear 10 - - - -
19/11:00am 25.1 ESE 15 22 1017.6 - 0.0 - - 10 - - - -
19/10:41am 25.8 ESE 16 26 1017.6 - 0.0 - - 10 - - - -
19/10:30am 24.9 ESE 16 24 1017.7 - 0.0 - - 10 - - - -
19/10:00am 25.2 SE 15 23 1017.9 - 0.0 - - 10 - - - -
19/09:30am 24.7 SE 15 23 1018.0 - 0.0 - - 10 - - - -
19/09:00am 24.3 SE 14 19 1018.0 R 0.0 Fine Mostly clear 27 - - - -
19/08:30am 23.7 SE 13 19 1017.9 - 0.0 - - 10 - - - -
19/08:00am 22.7 SE 12 19 1017.6 - 0.0 - - 10 - - - -
19/07:30am 21.7 SE 9 14 1017.2 - 0.0 - - 10 - - - -
19/07:00am 20.4 SE 8 11 1016.9 - 0.0 - - 10 - - - -
19/06:30am 19.8 SE 8 10 1016.5 - 0.0 - - 10 - - - -
19/06:00am 19.2 E 7 9 1016.0 R 0.0 Fine Mostly clear 23 - - - -
19/05:30am 19.2 ESE 7 10 1015.9 - 0.0 - - 10 - - - -
19/05:00am 18.9 ESE 7 9 1015.7 - 0.0 - - 10 - - - -
19/04:30am 17.8 ESE 6 9 1015.5 - 0.0 - - 10 - - - -
19/04:00am 17.5 E 6 9 1015.5 - 0.0 - - 10 - - - -
19/03:30am 17.9 SSE 5 7 1015.6 - 0.0 - - 10 - - - -
19/03:00am 18.4 SE 6 8 1015.3 - 0.0 - - 10 - - - -
19/02:30am 18.8 SSE 5 7 1015.7 - 0.0 - - 10 - - - -
19/02:00am 19.2 S 6 9 1015.7 - 0.0 - - 10 - - - -
19/01:30am 19.4 SSE 6 8 1015.9 - 0.0 - - 10 - - - -
19/01:00am 19.6 SSE 7 10 1016.1 - 0.0 - - 10 - - - -
19/12:30am 19.9 SSE 8 11 1016.4 - 0.0 - - 10 - - - -
19/12:00am 20.1 SSE 7 11 1016.3 - 0.0 - - 10 - - - -
 
Date/Time
CST
Temp

°C
Wind Pressure Rain
since 9am
mm
Weather Cloud Vis
km
Sea
Height
m
Swell
Dir
 
Speed
knots
Gust
knots
hPa Trend Height
m
Period
s
Dir
18/11:30pm 19.9 ESE 7 11 1016.6 - 0.0 - - 10 - - - -
18/11:00pm 19.8 ESE 7 9 1016.6 - 0.0 - - 10 - - - -
18/10:30pm 19.8 E 6 9 1016.6 - 0.0 - - 10 - - - -
18/10:00pm 20.0 E 6 9 1016.5 - 0.0 - - 10 - - - -
18/09:30pm 20.3 E 7 10 1016.5 - 0.0 - - 10 - - - -
18/09:00pm 20.2 ESE 6 8 1016.1 F 0.0 Fine Clear 23 - - - -
18/08:30pm 20.2 E 7 9 1016.2 - 0.0 - - 10 - - - -
18/08:00pm 20.1 ESE 6 8 1016.0 - 0.0 - - 10 - - - -
18/07:30pm 20.6 E 6 8 1015.9 - 0.0 - - 10 - - - -
18/07:00pm 21.2 E 7 9 1015.7 - 0.0 - - 10 - - - -
18/06:30pm 21.8 E 7 11 1015.4 - 0.0 - Mostly clear 10 - - - -
18/06:00pm 22.6 E 8 10 1015.1 F 0.0 Smoke Mostly clear 23 - - - -
18/05:30pm 23.4 SE 13 17 1015.2 - 0.0 - Mostly clear 10 - - - -
18/05:00pm 23.8 ESE 13 18 1015.0 - 0.0 - Mostly clear 10 - - - -
18/04:30pm 24.3 SE 12 19 1014.8 - 0.0 - Mostly clear 10 - - - -
18/04:00pm 25.4 SE 13 18 1014.8 - 0.0 - Mostly clear 10 - - - -
18/03:30pm 25.7 SE 12 17 1014.8 - 0.0 - Mostly clear 10 - - - -
18/03:00pm 25.7 SE 13 19 1014.9 R 0.0 Smoke Mostly clear 22 - - - -
18/02:42pm 25.1 SE 15 25 1015.1 - 0.0 - Mostly clear 10 - - - -
18/02:30pm 25.4 SE 13 19 1015.2 - 0.0 - Mostly clear 10 - - - -
18/02:00pm 25.4 ESE 15 19 1015.4 - 0.0 - - 10 - - - -
18/01:30pm 26.1 ESE 15 21 1015.6 - 0.0 - - 10 - - - -
18/01:00pm 25.7 S 12 17 1015.9 - 0.0 - - 10 - - - -
18/12:30pm 25.9 SE 16 27 1016.4 - 0.0 - Mostly clear 10 - - - -
18/12:22pm 25.7 ESE 17 27 1016.4 - 0.0 - Mostly clear 10 - - - -
18/12:00pm 25.9 SE 16 22 1016.5 R 0.0 Smoke Mostly clear 22 - - - -
18/11:30am 25.6 SE 16 23 1017.0 - 0.0 - Mostly clear 10 - - - -
18/11:00am 25.3 SE 17 26 1017.3 - 0.0 - Mostly clear 10 - - - -
18/10:56am 25.2 SE 17 27 1017.3 - 0.0 - Mostly clear 10 - - - -
18/10:30am 25.6 SE 18 25 1017.5 - 0.0 - Mostly clear 10 - - - -
18/10:03am 24.9 SE 17 27 1017.6 - 0.0 - Mostly clear 10 - - - -
18/10:00am 25.1 SE 17 24 1017.6 - 0.0 - Mostly clear 10 - - - -
18/09:30am 24.7 SE 17 24 1017.5 - 0.0 - Mostly clear 10 - - - -
18/09:00am 24.5 SE 16 23 1017.2 R 0.0 Fine Mostly clear 27 - - - -
18/08:30am 23.9 SE 14 22 1017.2 - 0.0 - Mostly clear 10 - - - -
18/08:00am 23.5 SE 15 24 1017.0 - 0.0 - Mostly clear 10 - - - -
18/07:30am 22.7 SE 12 19 1016.7 - 0.0 - Mostly clear 10 - - - -
18/07:00am 21.9 SE 11 15 1016.3 - 0.0 - - 10 - - - -
18/06:30am 21.5 SSE 11 17 1016.0 - 0.0 - - 10 - - - -
18/06:00am 21.7 SSE 12 19 1015.5 R 0.0 Fine Mostly clear 27 - - - -
18/05:30am 21.6 SE 12 17 1015.2 - 0.0 - - 10 - - - -
18/05:00am 21.6 SE 11 16 1014.9 - 0.0 - - 10 - - - -
18/04:30am 21.2 SE 9 14 1014.9 - 0.0 - - 10 - - - -
18/04:00am 20.7 SE 9 12 1015.0 - 0.0 - - 10 - - - -
18/03:30am 20.0 SE 8 10 1014.8 - 0.0 - - 10 - - - -
18/03:00am 19.6 SE 7 9 1014.5 - 0.0 - - 10 - - - -
18/02:30am 19.3 SSE 6 9 1014.9 - 0.0 - - 10 - - - -
18/02:00am 19.2 SE 7 11 1015.1 - 0.0 - - 10 - - - -

Other Formats:

Comma delimited format used in spreadsheet applications
http://www.bom.gov.au/fwo/IDD60701/IDD60701.94150.axf

JavaScript Object Notation format (JSON) in row-major order
http://www.bom.gov.au/fwo/IDD60701/IDD60701.94150.json